createdAt,value
2018-01-10T00:01:51.259Z,3.50
2018-01-10T00:04:20.723Z,3.30
2018-01-10T00:06:49.996Z,3.40
2018-01-10T00:09:18.610Z,3.30
2018-01-10T00:11:47.173Z,3.30
2018-01-10T00:14:16.725Z,3.40
2018-01-10T00:16:46.065Z,3.20
2018-01-10T00:19:14.617Z,3.20
2018-01-10T00:21:43.870Z,3.40
2018-01-10T00:24:12.433Z,3.40
2018-01-10T00:26:41.096Z,3.40
2018-01-10T00:29:09.636Z,3.30
2018-01-10T00:31:38.164Z,3.30
2018-01-10T00:34:06.670Z,3.30
2018-01-10T00:36:36.247Z,3.40
2018-01-10T00:39:04.937Z,3.40
2018-01-10T00:41:33.989Z,3.50
2018-01-10T00:44:02.807Z,3.50
2018-01-10T00:46:32.173Z,3.60
2018-01-10T00:49:00.708Z,3.50
2018-01-10T00:51:29.398Z,3.60
2018-01-10T00:53:57.933Z,3.50
2018-01-10T00:56:26.521Z,3.30
2018-01-10T00:58:55.845Z,3.10
2018-01-10T01:01:24.429Z,3.10
2018-01-10T01:03:52.987Z,3.10
2018-01-10T01:06:22.384Z,3.10
2018-01-10T01:08:51.641Z,3.00
2018-01-10T01:11:20.252Z,3.00
2018-01-10T01:13:48.761Z,3.10
2018-01-10T01:16:18.132Z,3.10
2018-01-10T01:18:46.624Z,3.10
2018-01-10T01:21:15.192Z,3.20
2018-01-10T01:23:43.692Z,3.10
2018-01-10T01:26:13.098Z,3.00
2018-01-10T01:28:42.401Z,3.00
2018-01-10T01:31:11.845Z,3.00
2018-01-10T01:33:40.403Z,3.00
2018-01-10T01:36:08.978Z,3.00
2018-01-10T01:38:38.312Z,3.00
2018-01-10T01:41:06.919Z,3.00
2018-01-10T01:43:35.412Z,3.00
2018-01-10T01:46:03.672Z,3.00
2018-01-10T01:48:33.262Z,3.20
2018-01-10T01:51:01.862Z,3.20
2018-01-10T01:53:30.425Z,3.30
2018-01-10T01:55:58.972Z,3.30
2018-01-10T01:58:28.273Z,3.10
2018-01-10T02:00:57.599Z,3.10
2018-01-10T02:03:26.149Z,3.10
2018-01-10T02:05:55.462Z,3.20
2018-01-10T02:08:24.021Z,3.10
2018-01-10T02:10:53.408Z,3.30
2018-01-10T02:13:21.962Z,3.20
2018-01-10T02:15:50.495Z,3.10
2018-01-10T02:18:19.772Z,3.00
2018-01-10T02:20:48.017Z,3.00
2018-01-10T02:23:16.514Z,3.10
2018-01-10T02:25:45.117Z,3.10
2018-01-10T02:28:13.607Z,3.10
2018-01-10T02:30:42.913Z,3.10
2018-01-10T02:33:12.224Z,3.00
2018-01-10T02:35:41.498Z,3.10
2018-01-10T02:38:10.028Z,3.10
2018-01-10T02:40:38.650Z,3.10
2018-01-10T02:43:07.133Z,3.20
2018-01-10T02:45:36.470Z,3.30
2018-01-10T02:48:06.470Z,3.40
2018-01-10T02:50:36.089Z,3.40
2018-01-10T02:53:05.351Z,3.30
2018-01-10T02:55:34.244Z,3.30
2018-01-10T02:58:02.799Z,3.30
2018-01-10T03:00:31.340Z,3.30
2018-01-10T03:03:00.809Z,3.10
2018-01-10T03:05:29.349Z,3.10
2018-01-10T03:07:57.877Z,3.20
2018-01-10T03:10:26.470Z,3.20
2018-01-10T03:12:55.005Z,3.30
2018-01-10T03:15:23.633Z,3.40
2018-01-10T03:17:52.176Z,3.40
2018-01-10T03:20:20.685Z,3.30
2018-01-10T03:22:49.226Z,3.40
2018-01-10T03:25:17.791Z,3.40
2018-01-10T03:27:46.294Z,3.40
2018-01-10T03:30:14.798Z,3.30
2018-01-10T03:32:43.441Z,3.40
2018-01-10T03:35:11.982Z,3.50
2018-01-10T03:37:40.535Z,3.60
2018-01-10T03:40:09.079Z,3.60
2018-01-10T03:42:38.724Z,3.70
2018-01-10T03:45:07.265Z,3.80
2018-01-10T03:47:36.679Z,3.60
2018-01-10T03:50:04.855Z,3.60
2018-01-10T03:52:33.812Z,3.60
2018-01-10T03:55:03.124Z,3.70
2018-01-10T03:57:32.429Z,3.70
2018-01-10T04:00:01.890Z,3.60
2018-01-10T04:02:30.473Z,3.60
2018-01-10T04:04:58.965Z,3.50
2018-01-10T04:07:27.567Z,3.40
2018-01-10T04:09:56.873Z,3.30
2018-01-10T04:12:26.229Z,3.30
2018-01-10T04:14:54.792Z,3.30
2018-01-10T04:17:23.436Z,3.40
2018-01-10T04:19:52.737Z,3.40
2018-01-10T04:22:23.271Z,3.50
2018-01-10T04:24:52.573Z,3.60
2018-01-10T04:27:21.984Z,3.40
2018-01-10T04:29:50.479Z,3.40
2018-01-10T04:32:18.992Z,3.40
2018-01-10T04:34:47.536Z,3.40
2018-01-10T04:37:16.069Z,3.60
2018-01-10T04:39:44.577Z,3.70
2018-01-10T04:42:13.850Z,3.80
2018-01-10T04:44:42.351Z,3.80
2018-01-10T04:47:11.657Z,4.00
2018-01-10T04:49:40.962Z,4.00
2018-01-10T04:52:10.284Z,3.90
2018-01-10T04:54:38.783Z,3.90
2018-01-10T04:57:07.323Z,3.90
2018-01-10T04:59:36.674Z,3.90
2018-01-10T05:02:05.200Z,3.90
2018-01-10T05:04:34.489Z,3.80
2018-01-10T05:07:03.790Z,3.70
2018-01-10T05:09:33.040Z,3.80
2018-01-10T05:12:01.519Z,3.80
2018-01-10T05:14:30.077Z,3.60
2018-01-10T05:16:58.606Z,3.60
2018-01-10T05:19:27.093Z,3.60
2018-01-10T05:21:55.720Z,3.60
2018-01-10T05:24:24.208Z,3.60
2018-01-10T05:26:52.715Z,3.70
2018-01-10T05:29:21.246Z,3.60
2018-01-10T05:31:50.516Z,3.70
2018-01-10T05:34:19.052Z,3.70
2018-01-10T05:36:47.516Z,3.70
2018-01-10T05:39:16.771Z,3.70
2018-01-10T05:41:45.278Z,3.70
2018-01-10T05:44:14.523Z,3.80
2018-01-10T05:46:43.000Z,3.80
2018-01-10T05:49:11.575Z,3.80
2018-01-10T05:51:40.048Z,3.80
2018-01-10T05:54:08.512Z,3.90
2018-01-10T05:56:37.786Z,3.90
2018-01-10T05:59:06.999Z,3.90
2018-01-10T06:01:37.096Z,3.70
2018-01-10T06:04:05.613Z,3.70
2018-01-10T06:06:34.425Z,3.70
2018-01-10T06:09:02.887Z,3.60
2018-01-10T06:11:31.364Z,3.80
2018-01-10T06:13:59.903Z,3.80
2018-01-10T06:16:28.424Z,3.70
2018-01-10T06:18:56.939Z,3.70
2018-01-10T06:21:25.455Z,3.60
2018-01-10T06:23:53.938Z,3.60
2018-01-10T06:26:22.478Z,3.60
2018-01-10T06:28:50.998Z,3.60
2018-01-10T06:31:19.530Z,3.60
2018-01-10T06:33:48.052Z,3.60
2018-01-10T06:36:16.575Z,3.80
2018-01-10T06:38:45.084Z,4.00
2018-01-10T06:41:13.550Z,4.10
2018-01-10T06:43:42.024Z,4.00
2018-01-10T06:46:10.605Z,3.90
2018-01-10T06:48:39.064Z,3.80
2018-01-10T06:51:08.380Z,4.00
2018-01-10T06:53:37.682Z,4.00
2018-01-10T06:56:06.900Z,3.80
2018-01-10T06:58:36.056Z,3.80
2018-01-10T07:01:05.818Z,3.90
2018-01-10T07:03:34.298Z,3.90
2018-01-10T07:06:02.837Z,4.10
2018-01-10T07:08:32.076Z,4.00
2018-01-10T07:11:01.394Z,4.10
2018-01-10T07:13:29.877Z,4.10
2018-01-10T07:15:58.397Z,4.10
2018-01-10T07:18:27.642Z,3.90
2018-01-10T07:20:56.162Z,4.00
2018-01-10T07:23:25.469Z,4.00
2018-01-10T07:25:54.751Z,3.80
2018-01-10T07:28:23.309Z,3.80
2018-01-10T07:30:51.809Z,3.80
2018-01-10T07:33:20.309Z,4.10
2018-01-10T07:35:49.594Z,4.20
2018-01-10T07:38:18.146Z,4.20
2018-01-10T07:40:46.658Z,4.30
2018-01-10T07:43:15.486Z,4.10
2018-01-10T07:45:44.010Z,4.00
2018-01-10T07:48:12.494Z,4.10
2018-01-10T07:50:40.984Z,4.10
2018-01-10T07:53:09.506Z,4.20
2018-01-10T07:55:37.992Z,4.30
2018-01-10T07:58:06.518Z,4.20
2018-01-10T08:00:35.060Z,4.30
2018-01-10T08:03:03.583Z,4.20
2018-01-10T08:05:32.093Z,4.30
2018-01-10T08:08:01.382Z,4.40
2018-01-10T08:10:30.665Z,4.20
2018-01-10T08:12:59.200Z,4.20
2018-01-10T08:15:27.673Z,4.10
2018-01-10T08:17:56.185Z,4.00
2018-01-10T08:20:24.701Z,4.10
2018-01-10T08:22:54.156Z,4.10
2018-01-10T08:25:22.633Z,4.10
2018-01-10T08:27:51.157Z,4.30
2018-01-10T08:30:19.696Z,4.30
2018-01-10T08:32:48.218Z,4.30
2018-01-10T08:35:16.821Z,4.20
2018-01-10T08:37:46.090Z,4.30
2018-01-10T08:40:15.511Z,4.20
2018-01-10T08:42:44.033Z,4.10
2018-01-10T08:45:12.549Z,4.10
2018-01-10T08:47:41.066Z,4.10
2018-01-10T08:50:10.357Z,4.10
2018-01-10T08:52:39.646Z,4.00
2018-01-10T08:55:08.211Z,4.00
2018-01-10T08:57:37.094Z,4.10
2018-01-10T09:00:05.410Z,4.10
2018-01-10T09:02:34.690Z,4.10
2018-01-10T09:05:03.302Z,4.10
2018-01-10T09:07:31.790Z,4.10
2018-01-10T09:10:00.348Z,4.20
2018-01-10T09:12:29.029Z,4.20
2018-01-10T09:14:58.345Z,4.30
2018-01-10T09:17:26.820Z,4.30
2018-01-10T09:19:56.054Z,4.30
2018-01-10T09:22:24.531Z,4.40
2018-01-10T09:24:52.997Z,4.40
2018-01-10T09:27:21.530Z,4.50
2018-01-10T09:29:50.010Z,4.60
2018-01-10T09:32:18.559Z,4.70
2018-01-10T09:34:47.069Z,4.80
2018-01-10T09:37:15.535Z,4.80
2018-01-10T09:39:44.058Z,4.70
2018-01-10T09:42:13.354Z,4.60
2018-01-10T09:44:42.638Z,4.60
2018-01-10T09:47:11.160Z,4.60
2018-01-10T09:49:39.636Z,4.50
2018-01-10T09:52:09.137Z,4.60
2018-01-10T09:54:37.765Z,4.70
2018-01-10T09:57:06.758Z,4.90
2018-01-10T09:59:35.538Z,5.20
2018-01-10T10:02:04.818Z,5.50
2018-01-10T10:04:33.353Z,5.40
2018-01-10T10:07:01.925Z,5.50
2018-01-10T10:09:30.393Z,5.50
2018-01-10T10:11:59.693Z,5.60
2018-01-10T10:14:28.237Z,5.60
2018-01-10T10:16:56.754Z,5.50
2018-01-10T10:19:25.295Z,5.50
2018-01-10T10:21:53.802Z,5.50
2018-01-10T10:24:22.310Z,5.60
2018-01-10T10:26:50.791Z,5.70
2018-01-10T10:29:19.260Z,5.80
2018-01-10T10:31:47.999Z,5.90
2018-01-10T10:34:16.507Z,6.00
2018-01-10T10:36:45.034Z,6.00
2018-01-10T10:39:14.278Z,6.10
2018-01-10T10:41:42.771Z,6.10
2018-01-10T10:44:11.252Z,6.20
2018-01-10T10:46:39.752Z,6.30
2018-01-10T10:49:08.265Z,6.30
2018-01-10T10:51:37.582Z,6.50
2018-01-10T10:54:06.715Z,6.50
2018-01-10T10:56:35.228Z,6.60
2018-01-10T10:59:03.703Z,6.70
2018-01-10T11:01:32.173Z,6.70
2018-01-10T11:04:00.689Z,6.80
2018-01-10T11:06:29.991Z,7.00
2018-01-10T11:08:59.271Z,7.00
2018-01-10T11:11:28.553Z,7.00
2018-01-10T11:13:57.086Z,7.00
2018-01-10T11:16:25.646Z,7.10
2018-01-10T11:18:54.926Z,7.20
2018-01-10T11:21:23.425Z,7.20
2018-01-10T11:23:52.704Z,7.30
2018-01-10T11:26:21.241Z,7.30
2018-01-10T11:28:49.743Z,7.30
2018-01-10T11:31:18.214Z,7.40
2018-01-10T11:33:46.732Z,7.50
2018-01-10T11:36:15.203Z,7.50
2018-01-10T11:38:43.721Z,7.60
2018-01-10T11:41:13.273Z,7.60
2018-01-10T11:43:41.781Z,7.60
2018-01-10T11:46:10.311Z,7.70
2018-01-10T11:48:39.569Z,7.80
2018-01-10T11:51:09.680Z,7.80
2018-01-10T11:53:39.000Z,7.70
2018-01-10T11:56:07.790Z,7.80
2018-01-10T11:58:37.070Z,7.90
2018-01-10T12:01:05.604Z,7.80
2018-01-10T12:03:34.124Z,7.90
2018-01-10T12:06:02.599Z,8.00
2018-01-10T12:08:31.109Z,8.00
2018-01-10T12:11:00.360Z,8.00
2018-01-10T12:13:28.872Z,8.00
2018-01-10T12:15:57.361Z,8.00
2018-01-10T12:18:26.615Z,8.20
2018-01-10T12:20:55.126Z,8.20
2018-01-10T12:23:23.598Z,8.20
2018-01-10T12:25:52.089Z,8.20
2018-01-10T12:28:20.601Z,8.20
2018-01-10T12:30:49.504Z,8.20
2018-01-10T12:33:17.990Z,8.20
2018-01-10T12:35:46.464Z,8.30
2018-01-10T12:38:14.985Z,8.30
2018-01-10T12:40:43.473Z,8.20
2018-01-10T12:43:11.987Z,8.20
2018-01-10T12:45:41.290Z,8.30
2018-01-10T12:48:10.540Z,8.30
2018-01-10T12:50:39.934Z,8.30
2018-01-10T12:53:09.298Z,8.30
2018-01-10T12:55:38.784Z,8.20
2018-01-10T12:58:08.046Z,8.20
2018-01-10T13:00:36.616Z,8.20
2018-01-10T13:03:05.091Z,8.30
2018-01-10T13:05:33.591Z,8.20
2018-01-10T13:08:02.105Z,8.20
2018-01-10T13:10:31.401Z,8.10
2018-01-10T13:12:59.947Z,8.00
2018-01-10T13:15:28.443Z,8.10
2018-01-10T13:17:56.990Z,8.20
2018-01-10T13:20:25.493Z,8.20
2018-01-10T13:22:54.003Z,8.20
2018-01-10T13:25:22.505Z,8.00
2018-01-10T13:27:51.732Z,8.10
2018-01-10T13:30:20.240Z,8.10
2018-01-10T13:32:48.721Z,8.00
2018-01-10T13:35:17.260Z,7.80
2018-01-10T13:37:45.759Z,7.70
2018-01-10T13:40:14.029Z,7.60
2018-01-10T13:42:42.567Z,7.50
2018-01-10T13:45:11.047Z,7.70
2018-01-10T13:47:39.560Z,7.70
2018-01-10T13:50:08.317Z,7.90
2018-01-10T13:52:38.358Z,7.80
2018-01-10T13:55:07.483Z,7.70
2018-01-10T13:57:35.970Z,7.80
2018-01-10T14:00:04.466Z,7.70
2018-01-10T14:02:33.945Z,7.50
2018-01-10T14:05:02.514Z,7.40
2018-01-10T14:07:31.256Z,7.30
2018-01-10T14:09:59.789Z,7.20
2018-01-10T14:12:28.280Z,7.20
2018-01-10T14:14:56.743Z,7.20
2018-01-10T14:17:25.294Z,7.10
2018-01-10T14:19:54.553Z,7.10
2018-01-10T14:22:24.091Z,7.00
2018-01-10T14:24:52.771Z,7.00
2018-01-10T14:27:21.292Z,7.00
2018-01-10T14:29:49.833Z,7.00
2018-01-10T14:32:19.280Z,7.00
2018-01-10T14:34:48.697Z,6.90
2018-01-10T14:37:17.187Z,6.90
2018-01-10T14:39:45.668Z,6.90
2018-01-10T14:42:15.162Z,6.90
2018-01-10T14:44:43.649Z,7.10
2018-01-10T14:47:12.147Z,7.50
2018-01-10T14:49:40.692Z,7.60
2018-01-10T14:52:09.980Z,7.60
2018-01-10T14:54:39.436Z,7.50
2018-01-10T14:57:07.990Z,7.40
2018-01-10T14:59:36.505Z,7.30
2018-01-10T15:02:05.020Z,7.30
2018-01-10T15:04:34.056Z,7.20
2018-01-10T15:07:02.553Z,7.20
2018-01-10T15:09:31.598Z,7.20
2018-01-10T15:12:00.108Z,7.10
2018-01-10T15:14:28.615Z,7.10
2018-01-10T15:16:57.066Z,7.10
2018-01-10T15:19:25.565Z,7.00
2018-01-10T15:21:54.043Z,7.00
2018-01-10T15:24:22.499Z,7.00
2018-01-10T15:26:50.960Z,6.90
2018-01-10T15:29:20.202Z,6.90
2018-01-10T15:31:48.691Z,6.80
2018-01-10T15:34:17.144Z,6.80
2018-01-10T15:40:17.336Z,6.80
2018-01-10T15:42:45.824Z,6.70
2018-01-10T15:45:15.039Z,6.70
2018-01-10T15:47:44.267Z,6.70
2018-01-10T15:50:12.715Z,6.60
2018-01-10T15:52:41.974Z,6.60
2018-01-10T15:55:10.453Z,6.60
2018-01-10T15:57:38.911Z,6.60
2018-01-10T16:00:07.418Z,6.50
2018-01-10T16:02:35.866Z,6.50
2018-01-10T16:05:04.347Z,6.50
2018-01-10T16:07:32.840Z,6.50
2018-01-10T16:10:01.295Z,6.50
2018-01-10T16:12:29.793Z,6.50
2018-01-10T16:14:58.246Z,6.40
2018-01-10T16:17:26.725Z,6.50
2018-01-10T16:19:55.203Z,6.40
2018-01-10T16:22:23.697Z,6.40
2018-01-10T16:24:52.191Z,6.40
2018-01-10T16:27:20.645Z,6.40
2018-01-10T16:29:49.126Z,6.40
2018-01-10T16:32:17.632Z,6.40
2018-01-10T16:34:46.107Z,6.40
2018-01-10T16:37:14.597Z,6.40
2018-01-10T16:39:43.081Z,6.40
2018-01-10T16:42:12.526Z,6.30
2018-01-10T16:44:41.741Z,6.30
2018-01-10T16:47:11.057Z,6.20
2018-01-10T16:49:40.176Z,6.20
2018-01-10T16:52:09.180Z,6.20
2018-01-10T16:54:38.173Z,6.20
2018-01-10T16:57:06.667Z,6.10
2018-01-10T16:59:35.176Z,6.10
2018-01-10T17:02:04.403Z,6.10
2018-01-10T17:04:32.879Z,6.10
2018-01-10T17:07:01.373Z,6.10
2018-01-10T17:09:30.546Z,6.10
2018-01-10T17:11:59.034Z,6.10
2018-01-10T17:14:27.487Z,6.10
2018-01-10T17:16:56.700Z,6.10
2018-01-10T17:19:25.174Z,6.10
2018-01-10T17:21:53.472Z,6.10
2018-01-10T17:24:21.987Z,6.10
2018-01-10T17:26:50.510Z,6.10
2018-01-10T17:29:19.764Z,6.10
2018-01-10T17:31:48.271Z,6.00
2018-01-10T17:34:16.747Z,6.10
2018-01-10T17:36:45.247Z,6.10
2018-01-10T17:39:14.465Z,6.00
2018-01-10T17:41:43.017Z,6.00
2018-01-10T17:44:11.489Z,6.00
2018-01-10T17:46:40.681Z,6.10
2018-01-10T17:49:09.210Z,6.00
2018-01-10T17:51:38.184Z,6.00
2018-01-10T17:54:06.682Z,6.00
2018-01-10T17:56:35.230Z,6.00
2018-01-10T17:59:04.566Z,6.00
2018-01-10T18:01:33.087Z,6.00
2018-01-10T18:04:01.673Z,6.00
2018-01-10T18:06:30.306Z,6.00
2018-01-10T18:08:58.847Z,6.00
2018-01-10T18:11:28.179Z,6.00
2018-01-10T18:13:56.898Z,6.00
2018-01-10T18:16:25.633Z,6.00
2018-01-10T18:18:54.334Z,6.00
2018-01-10T18:21:23.085Z,6.00
2018-01-10T18:23:52.575Z,6.00
2018-01-10T18:26:22.112Z,6.00
2018-01-10T18:28:50.850Z,5.90
2018-01-10T18:31:19.621Z,5.90
2018-01-10T18:33:48.318Z,6.00
2018-01-10T18:36:17.028Z,5.90
2018-01-10T18:38:46.483Z,5.90
2018-01-10T18:41:15.309Z,5.90
2018-01-10T18:43:44.057Z,5.90
2018-01-10T18:46:12.840Z,5.90
2018-01-10T18:48:41.674Z,5.90
2018-01-10T18:51:12.154Z,5.90
2018-01-10T18:53:41.587Z,5.90
2018-01-10T18:56:10.390Z,5.90
2018-01-10T18:58:39.564Z,5.90
2018-01-10T19:01:08.552Z,6.00
2018-01-10T19:03:37.316Z,5.90
2018-01-10T19:06:06.371Z,5.90
2018-01-10T19:08:35.919Z,5.90
2018-01-10T19:11:04.725Z,5.90
2018-01-10T19:13:33.270Z,5.90
2018-01-10T19:16:02.109Z,6.00
2018-01-10T19:18:30.827Z,6.00
2018-01-10T19:21:00.339Z,6.00
2018-01-10T19:23:29.710Z,6.00
2018-01-10T19:25:58.276Z,5.90
2018-01-10T19:28:26.969Z,6.00
2018-01-10T19:30:55.492Z,6.00
2018-01-10T19:33:24.019Z,6.00
2018-01-10T19:35:52.512Z,6.00
2018-01-10T19:38:21.084Z,6.00
2018-01-10T19:40:49.598Z,6.00
2018-01-10T19:43:18.099Z,5.90
2018-01-10T19:45:46.619Z,6.00
2018-01-10T19:48:15.079Z,5.90
2018-01-10T19:50:44.369Z,5.90
2018-01-10T19:53:13.727Z,5.90
2018-01-10T19:55:43.109Z,5.90
2018-01-10T19:58:11.676Z,5.90
2018-01-10T20:00:40.217Z,6.00
2018-01-10T20:03:09.522Z,6.00
2018-01-10T20:05:39.482Z,6.00
2018-01-10T20:08:07.991Z,5.90
2018-01-10T20:10:36.475Z,5.90
2018-01-10T20:13:04.968Z,5.80
2018-01-10T20:15:33.435Z,5.70
2018-01-10T20:18:01.950Z,5.70
2018-01-10T20:20:30.479Z,5.60
2018-01-10T20:22:58.961Z,5.60
2018-01-10T20:25:27.419Z,5.60
2018-01-10T20:27:55.896Z,5.50
2018-01-10T20:30:25.145Z,5.40
2018-01-10T20:32:53.638Z,5.40
2018-01-10T20:35:22.133Z,5.40
2018-01-10T20:37:50.627Z,5.30
2018-01-10T20:40:19.889Z,5.20
2018-01-10T20:42:48.437Z,5.20
2018-01-10T20:45:16.961Z,5.20
2018-01-10T20:47:45.529Z,5.20
2018-01-10T20:50:14.812Z,5.20
2018-01-10T20:52:43.276Z,5.20
2018-01-10T20:55:12.399Z,5.10
2018-01-10T20:57:41.743Z,5.40
2018-01-10T21:00:11.828Z,5.20
2018-01-10T21:02:41.208Z,5.20
2018-01-10T21:05:10.580Z,5.10
2018-01-10T21:07:39.765Z,5.20
2018-01-10T21:10:09.043Z,5.20
2018-01-10T21:12:37.593Z,5.20
2018-01-10T21:15:06.065Z,5.20
2018-01-10T21:17:34.577Z,5.20
2018-01-10T21:20:03.064Z,5.20
2018-01-10T21:22:31.573Z,5.20
2018-01-10T21:25:00.838Z,5.40
2018-01-10T21:27:29.362Z,5.40
2018-01-10T21:29:57.880Z,5.40
2018-01-10T21:32:26.498Z,5.40
2018-01-10T21:34:54.955Z,5.40
2018-01-10T21:37:23.451Z,5.40
2018-01-10T21:39:51.942Z,5.30
2018-01-10T21:42:20.394Z,5.20
2018-01-10T21:44:48.872Z,5.30
2018-01-10T21:47:17.463Z,5.30
2018-01-10T21:49:45.969Z,5.30
2018-01-10T21:52:15.324Z,5.30
2018-01-10T21:54:43.771Z,5.30
2018-01-10T21:57:12.302Z,5.50
2018-01-10T21:59:40.817Z,5.40
2018-01-10T22:02:11.074Z,5.30
2018-01-10T22:04:40.188Z,5.30
2018-01-10T22:07:08.733Z,5.40
2018-01-10T22:09:37.963Z,5.30
2018-01-10T22:12:06.404Z,5.20
2018-01-10T22:14:35.617Z,5.20
2018-01-10T22:17:04.226Z,5.10
2018-01-10T22:19:33.531Z,5.10
2018-01-10T22:22:02.131Z,5.10
2018-01-10T22:24:30.617Z,5.20
2018-01-10T22:26:59.099Z,5.20
2018-01-10T22:29:27.605Z,5.20
2018-01-10T22:31:56.856Z,5.50
2018-01-10T22:34:25.330Z,5.50
2018-01-10T22:36:53.869Z,5.60
2018-01-10T22:39:23.107Z,5.30
2018-01-10T22:41:52.427Z,5.30
2018-01-10T22:44:20.948Z,5.30
2018-01-10T22:46:51.032Z,5.20
2018-01-10T22:49:19.695Z,5.20
2018-01-10T22:51:48.232Z,5.20
2018-01-10T22:54:17.460Z,5.20
2018-01-10T22:56:45.975Z,5.10
2018-01-10T22:59:14.434Z,5.10
2018-01-10T23:01:42.943Z,5.10
2018-01-10T23:04:11.460Z,5.00
2018-01-10T23:06:40.339Z,5.00
2018-01-10T23:09:09.599Z,5.00
2018-01-10T23:11:38.248Z,5.00
2018-01-10T23:14:06.706Z,5.00
2018-01-10T23:16:35.909Z,5.00
2018-01-10T23:19:05.127Z,5.00
2018-01-10T23:21:33.770Z,5.00
2018-01-10T23:24:03.023Z,5.00
2018-01-10T23:26:33.208Z,5.00
2018-01-10T23:29:02.424Z,5.00
2018-01-10T23:31:30.969Z,5.00
2018-01-10T23:34:00.264Z,5.00
2018-01-10T23:36:28.941Z,4.90
2018-01-10T23:38:57.434Z,4.90
2018-01-10T23:41:25.918Z,4.80
2018-01-10T23:43:55.151Z,4.70
2018-01-10T23:46:23.717Z,4.70
2018-01-10T23:48:52.728Z,4.70
2018-01-10T23:51:21.489Z,4.60
2018-01-10T23:53:51.191Z,4.60
2018-01-10T23:56:20.579Z,4.70
2018-01-10T23:58:49.080Z,4.70
